sensor_id;sensor_type;location;lat;lon;timestamp;pressure;altitude;pressure_sealevel;temperature;humidity
73316;BME280;61545;53.726;-0.444;2023-05-02T00:01:55;1020.4;;;unknown;100.0
73316;BME280;61545;53.726;-0.444;2023-05-02T00:06:55;1020.5;;;9.2;100.0
73316;BME280;61545;53.726;-0.444;2023-05-02T00:11:55;1020.5;;;9.3;100.0
73316;BME280;61545;53.726;-0.444;2023-05-02T00:16:55;1020.6;;;9.4;100.0
73316;BME280;61545;53.726;-0.444;2023-05-02T00:21:55;1020.7;;;9.2;100.0
73316;BME280;61545;53.726;-0.444;2023-05-02T00:26:55;1020.8;;;9.1;100.0
73316;BME280;61545;53.726;-0.444;2023-05-02T00:31:55;1020.7;;;9.2;100.0
73316;BME280;61545;53.726;-0.444;2023-05-02T00:36:55;1020.8;;;9.2;100.0
73316;BME280;61545;53.726;-0.444;2023-05-02T00:41:55;1020.8;;;9.2;100.0
73316;BME280;61545;53.726;-0.444;2023-05-02T00:46:55;1020.8;;;9.1;100.0
73316;BME280;61545;53.726;-0.444;2023-05-02T00:51:55;1020.8;;;8.9;100.0
73316;BME280;61545;53.726;-0.444;2023-05-02T00:56:55;1020.7;;;8.9;100.0
73316;BME280;61545;53.726;-0.444;2023-05-02T01:01:59;1020.7;;;8.9;100.0
73316;BME280;61545;53.726;-0.444;2023-05-02T01:07:01;1020.7;;;8.9;100.0
73316;BME280;61545;53.726;-0.444;2023-05-02T01:11:59;1020.8;;;9.0;100.0
73316;BME280;61545;53.726;-0.444;2023-05-02T01:16:55;1020.8;;;9.0;100.0
73316;BME280;61545;53.726;-0.444;2023-05-02T01:21:55;1020.9;;;9.0;100.0
73316;BME280;61545;53.726;-0.444;2023-05-02T01:27:00;1020.8;;;8.9;100.0
73316;BME280;61545;53.726;-0.444;2023-05-02T01:31:55;1020.8;;;8.7;100.0
73316;BME280;61545;53.726;-0.444;2023-05-02T01:36:56;1020.8;;;8.7;100.0
73316;BME280;61545;53.726;-0.444;2023-05-02T01:41:55;1020.9;;;8.9;100.0
73316;BME280;61545;53.726;-0.444;2023-05-02T01:46:55;1020.9;;;8.9;100.0
73316;BME280;61545;53.726;-0.444;2023-05-02T01:51:55;1020.9;;;8.9;100.0
73316;BME280;61545;53.726;-0.444;2023-05-02T01:56:55;1020.9;;;8.9;100.0
73316;BME280;61545;53.726;-0.444;2023-05-02T02:01:55;1020.9;;;8.7;100.0
73316;BME280;61545;53.726;-0.444;2023-05-02T02:06:57;1020.9;;;8.7;100.0
73316;BME280;61545;53.726;-0.444;2023-05-02T02:11:58;1021.0;;;8.7;100.0
73316;BME280;61545;53.726;-0.444;2023-05-02T02:16:55;1021.0;;;8.5;100.0
73316;BME280;61545;53.726;-0.444;2023-05-02T02:21:55;1021.0;;;8.5;100.0
73316;BME280;61545;53.726;-0.444;2023-05-02T02:26:55;1021.1;;;8.6;100.0
73316;BME280;61545;53.726;-0.444;2023-05-02T02:31:55;1021.2;;;8.6;100.0
73316;BME280;61545;53.726;-0.444;2023-05-02T02:36:57;1021.2;;;8.6;100.0
73316;BME280;61545;53.726;-0.444;2023-05-02T02:42:00;1021.2;;;8.6;100.0
73316;BME280;61545;53.726;-0.444;2023-05-02T02:47:00;1021.2;;;8.5;100.0
73316;BME280;61545;53.726;-0.444;2023-05-02T02:51:59;1021.2;;;8.7;100.0
73316;BME280;61545;53.726;-0.444;2023-05-02T02:56:58;1021.2;;;8.8;100.0
73316;BME280;61545;53.726;-0.444;2023-05-02T03:01:59;1021.2;;;8.5;100.0
73316;BME280;61545;53.726;-0.444;2023-05-02T03:06:55;1021.3;;;8.5;100.0
73316;BME280;61545;53.726;-0.444;2023-05-02T03:11:55;1021.3;;;8.5;100.0
73316;BME280;61545;53.726;-0.444;2023-05-02T03:16:55;1021.3;;;8.4;100.0
73316;BME280;61545;53.726;-0.444;2023-05-02T03:21:55;1021.3;;;8.5;100.0
73316;BME280;61545;53.726;-0.444;2023-05-02T03:26:55;1021.3;;;8.4;100.0
73316;BME280;61545;53.726;-0.444;2023-05-02T03:31:55;1021.3;;;8.3;100.0
73316;BME280;61545;53.726;-0.444;2023-05-02T03:36:55;1021.3;;;8.3;100.0
73316;BME280;61545;53.726;-0.444;2023-05-02T03:41:55;1021.3;;;8.2;100.0
73316;BME280;61545;53.726;-0.444;2023-05-02T03:46:55;1021.4;;;8.3;100.0
73316;BME280;61545;53.726;-0.444;2023-05-02T03:51:55;1021.5;;;8.3;100.0
73316;BME280;61545;53.726;-0.444;2023-05-02T03:56:55;1021.6;;;8.3;100.0
73316;BME280;61545;53.726;-0.444;2023-05-02T04:01:55;1021.6;;;8.3;100.0
73316;BME280;61545;53.726;-0.444;2023-05-02T04:06:55;1021.7;;;8.3;100.0
73316;BME280;61545;53.726;-0.444;2023-05-02T04:11:55;1021.7;;;8.3;100.0
73316;BME280;61545;53.726;-0.444;2023-05-02T04:16:55;1021.7;;;8.3;100.0
73316;BME280;61545;53.726;-0.444;2023-05-02T04:21:55;1021.7;;;8.2;100.0
73316;BME280;61545;53.726;-0.444;2023-05-02T04:26:55;1021.7;;;8.2;100.0
73316;BME280;61545;53.726;-0.444;2023-05-02T04:31:55;1021.9;;;8.2;100.0
73316;BME280;61545;53.726;-0.444;2023-05-02T04:36:55;1021.9;;;8.4;100.0
73316;BME280;61545;53.726;-0.444;2023-05-02T04:41:55;1022.0;;;8.4;100.0
73316;BME280;61545;53.726;-0.444;2023-05-02T04:46:55;1022.0;;;8.4;100.0
73316;BME280;61545;53.726;-0.444;2023-05-02T04:51:55;1022.0;;;8.4;100.0
73316;BME280;61545;53.726;-0.444;2023-05-02T04:56:55;1022.1;;;8.3;100.0
73316;BME280;61545;53.726;-0.444;2023-05-02T05:01:55;1022.1;;;8.3;100.0
73316;BME280;61545;53.726;-0.444;2023-05-02T05:06:55;1022.2;;;8.2;100.0
73316;BME280;61545;53.726;-0.444;2023-05-02T05:11:55;1022.3;;;8.2;100.0
73316;BME280;61545;53.726;-0.444;2023-05-02T05:16:55;1022.3;;;8.2;100.0
73316;BME280;61545;53.726;-0.444;2023-05-02T05:21:55;1022.4;;;8.2;100.0
73316;BME280;61545;53.726;-0.444;2023-05-02T05:26:55;1022.5;;;8.2;100.0
73316;BME280;61545;53.726;-0.444;2023-05-02T05:31:55;1022.5;;;8.2;100.0
73316;BME280;61545;53.726;-0.444;2023-05-02T05:36:55;1022.5;;;8.2;100.0
73316;BME280;61545;53.726;-0.444;2023-05-02T05:41:55;1022.6;;;8.1;100.0
73316;BME280;61545;53.726;-0.444;2023-05-02T05:46:55;1022.7;;;8.0;100.0
73316;BME280;61545;53.726;-0.444;2023-05-02T05:51:55;1022.7;;;8.0;100.0
73316;BME280;61545;53.726;-0.444;2023-05-02T05:56:55;1022.8;;;8.0;100.0
73316;BME280;61545;53.726;-0.444;2023-05-02T06:01:55;1022.8;;;8.3;100.0
73316;BME280;61545;53.726;-0.444;2023-05-02T06:06:55;1022.8;;;8.4;100.0
73316;BME280;61545;53.726;-0.444;2023-05-02T06:11:55;1022.8;;;8.2;100.0
73316;BME280;61545;53.726;-0.444;2023-05-02T06:16:57;1022.9;;;8.2;100.0
73316;BME280;61545;53.726;-0.444;2023-05-02T06:21:55;1023.0;;;8.3;100.0
73316;BME280;61545;53.726;-0.444;2023-05-02T06:26:55;1023.1;;;8.2;100.0
73316;BME280;61545;53.726;-0.444;2023-05-02T06:31:55;1023.1;;;8.2;100.0
73316;BME280;61545;53.726;-0.444;2023-05-02T06:36:55;1023.1;;;8.4;100.0
73316;BME280;61545;53.726;-0.444;2023-05-02T06:41:55;1023.1;;;8.4;100.0
73316;BME280;61545;53.726;-0.444;2023-05-02T06:46:55;1023.2;;;8.2;100.0
73316;BME280;61545;53.726;-0.444;2023-05-02T06:51:55;1023.2;;;8.3;100.0
73316;BME280;61545;53.726;-0.444;2023-05-02T06:56:55;1023.2;;;8.3;100.0
73316;BME280;61545;53.726;-0.444;2023-05-02T07:01:55;1023.2;;;8.2;100.0
73316;BME280;61545;53.726;-0.444;2023-05-02T07:06:55;1023.2;;;8.3;100.0
73316;BME280;61545;53.726;-0.444;2023-05-02T07:11:55;1023.3;;;8.4;100.0
73316;BME280;61545;53.726;-0.444;2023-05-02T07:16:55;1023.3;;;8.4;100.0
73316;BME280;61545;53.726;-0.444;2023-05-02T07:21:55;1023.3;;;8.7;100.0
73316;BME280;61545;53.726;-0.444;2023-05-02T07:26:55;1023.3;;;8.8;100.0
73316;BME280;61545;53.726;-0.444;2023-05-02T07:31:55;1023.4;;;8.5;100.0
73316;BME280;61545;53.726;-0.444;2023-05-02T07:36:56;1023.5;;;8.5;100.0
73316;BME280;61545;53.726;-0.444;2023-05-02T07:41:55;1023.5;;;8.5;100.0
73316;BME280;61545;53.726;-0.444;2023-05-02T07:46:55;1023.6;;;8.5;100.0
73316;BME280;61545;53.726;-0.444;2023-05-02T07:51:55;1023.5;;;8.7;100.0
73316;BME280;61545;53.726;-0.444;2023-05-02T07:56:55;1023.5;;;8.7;100.0
73316;BME280;61545;53.726;-0.444;2023-05-02T08:01:55;1023.6;;;8.7;100.0
73316;BME280;61545;53.726;-0.444;2023-05-02T08:06:55;1023.6;;;8.8;100.0
73316;BME280;61545;53.726;-0.444;2023-05-02T08:11:55;1023.6;;;8.7;100.0
73316;BME280;61545;53.726;-0.444;2023-05-02T08:16:55;1023.6;;;8.7;100.0
73316;BME280;61545;53.726;-0.444;2023-05-02T08:21:55;1023.6;;;8.6;100.0
73316;BME280;61545;53.726;-0.444;2023-05-02T08:26:55;1023.6;;;8.8;100.0
73316;BME280;61545;53.726;-0.444;2023-05-02T08:31:55;1023.6;;;9.0;100.0
73316;BME280;61545;53.726;-0.444;2023-05-02T08:36:55;1023.6;;;9.0;100.0
73316;BME280;61545;53.726;-0.444;2023-05-02T08:41:55;1023.6;;;9.0;100.0
73316;BME280;61545;53.726;-0.444;2023-05-02T08:46:55;1023.7;;;9.0;100.0
73316;BME280;61545;53.726;-0.444;2023-05-02T08:51:55;1023.7;;;9.0;100.0
73316;BME280;61545;53.726;-0.444;2023-05-02T08:56:55;1023.7;;;9.2;100.0
73316;BME280;61545;53.726;-0.444;2023-05-02T09:01:58;1023.7;;;9.7;100.0
73316;BME280;61545;53.726;-0.444;2023-05-02T09:06:55;1023.8;;;9.6;100.0
73316;BME280;61545;53.726;-0.444;2023-05-02T09:11:55;1023.7;;;9.8;100.0
73316;BME280;61545;53.726;-0.444;2023-05-02T09:16:57;1023.7;;;10.2;100.0
73316;BME280;61545;53.726;-0.444;2023-05-02T09:21:59;1023.7;;;10.0;100.0
73316;BME280;61545;53.726;-0.444;2023-05-02T09:26:56;1023.8;;;10.4;100.0
73316;BME280;61545;53.726;-0.444;2023-05-02T09:31:55;1023.8;;;10.4;100.0
73316;BME280;61545;53.726;-0.444;2023-05-02T09:36:56;1023.9;;;10.2;100.0
73316;BME280;61545;53.726;-0.444;2023-05-02T09:41:56;1023.8;;;10.1;100.0
73316;BME280;61545;53.726;-0.444;2023-05-02T09:46:55;1023.9;;;10.2;100.0
73316;BME280;61545;53.726;-0.444;2023-05-02T09:51:55;1024.0;;;10.0;100.0
73316;BME280;61545;53.726;-0.444;2023-05-02T09:56:55;1024.0;;;10.3;100.0
73316;BME280;61545;53.726;-0.444;2023-05-02T10:01:55;1024.0;;;10.4;100.0
73316;BME280;61545;53.726;-0.444;2023-05-02T10:06:55;1024.1;;;10.2;100.0
73316;BME280;61545;53.726;-0.444;2023-05-02T10:11:55;1024.2;;;10.2;100.0
73316;BME280;61545;53.726;-0.444;2023-05-02T10:16:59;1024.2;;;10.2;100.0
73316;BME280;61545;53.726;-0.444;2023-05-02T10:21:55;1024.2;;;10.0;100.0
73316;BME280;61545;53.726;-0.444;2023-05-02T10:26:55;1024.2;;;10.1;100.0
73316;BME280;61545;53.726;-0.444;2023-05-02T10:31:56;1024.3;;;10.0;100.0
73316;BME280;61545;53.726;-0.444;2023-05-02T10:36:55;1024.3;;;10.1;100.0
73316;BME280;61545;53.726;-0.444;2023-05-02T10:41:56;1024.3;;;10.2;100.0
73316;BME280;61545;53.726;-0.444;2023-05-02T10:46:55;1024.4;;;10.2;100.0
73316;BME280;61545;53.726;-0.444;2023-05-02T10:51:55;1024.3;;;10.0;100.0
73316;BME280;61545;53.726;-0.444;2023-05-02T10:57:04;1024.4;;;10.2;100.0
73316;BME280;61545;53.726;-0.444;2023-05-02T11:01:55;1024.5;;;10.1;100.0
73316;BME280;61545;53.726;-0.444;2023-05-02T11:07:27;1024.5;;;10.4;100.0
73316;BME280;61545;53.726;-0.444;2023-05-02T11:11:55;1024.5;;;10.6;100.0
73316;BME280;61545;53.726;-0.444;2023-05-02T11:17:11;1024.5;;;10.9;100.0
73316;BME280;61545;53.726;-0.444;2023-05-02T11:22:29;1024.5;;;10.7;100.0
73316;BME280;61545;53.726;-0.444;2023-05-02T11:27:35;1024.5;;;10.6;100.0
73316;BME280;61545;53.726;-0.444;2023-05-02T11:31:55;1024.4;;;11.0;100.0
73316;BME280;61545;53.726;-0.444;2023-05-02T11:36:55;1024.4;;;11.1;100.0
73316;BME280;61545;53.726;-0.444;2023-05-02T11:41:55;1024.4;;;11.2;100.0
73316;BME280;61545;53.726;-0.444;2023-05-02T11:46:55;1024.3;;;11.5;100.0
73316;BME280;61545;53.726;-0.444;2023-05-02T11:51:57;1024.4;;;11.9;100.0
73316;BME280;61545;53.726;-0.444;2023-05-02T11:56:55;1024.3;;;11.9;100.0
73316;BME280;61545;53.726;-0.444;2023-05-02T12:01:55;1024.4;;;11.7;100.0
73316;BME280;61545;53.726;-0.444;2023-05-02T12:06:55;1024.4;;;11.5;100.0
73316;BME280;61545;53.726;-0.444;2023-05-02T12:11:55;1024.6;;;11.9;100.0
73316;BME280;61545;53.726;-0.444;2023-05-02T12:16:57;1024.7;;;11.5;100.0
73316;BME280;61545;53.726;-0.444;2023-05-02T12:21:55;1024.7;;;11.3;100.0
73316;BME280;61545;53.726;-0.444;2023-05-02T12:27:11;1024.7;;;11.7;100.0
73316;BME280;61545;53.726;-0.444;2023-05-02T12:31:55;1024.7;;;12.0;100.0
73316;BME280;61545;53.726;-0.444;2023-05-02T12:36:55;1024.7;;;12.0;100.0
73316;BME280;61545;53.726;-0.444;2023-05-02T12:41:55;1024.7;;;11.7;100.0
73316;BME280;61545;53.726;-0.444;2023-05-02T12:46:57;1024.6;;;11.9;100.0
73316;BME280;61545;53.726;-0.444;2023-05-02T12:51:55;1024.6;;;12.4;100.0
73316;BME280;61545;53.726;-0.444;2023-05-02T12:56:55;1024.7;;;12.1;100.0
73316;BME280;61545;53.726;-0.444;2023-05-02T13:01:56;1024.7;;;11.5;100.0
73316;BME280;61545;53.726;-0.444;2023-05-02T13:06:55;1024.7;;;11.5;100.0
73316;BME280;61545;53.726;-0.444;2023-05-02T13:11:55;1024.6;;;11.7;100.0
73316;BME280;61545;53.726;-0.444;2023-05-02T13:16:55;1024.6;;;11.6;100.0
73316;BME280;61545;53.726;-0.444;2023-05-02T13:21:55;1024.6;;;11.9;100.0
73316;BME280;61545;53.726;-0.444;2023-05-02T13:26:55;1024.7;;;12.0;100.0
73316;BME280;61545;53.726;-0.444;2023-05-02T13:31:55;1024.5;;;12.0;100.0
73316;BME280;61545;53.726;-0.444;2023-05-02T13:36:55;1024.6;;;12.4;100.0
73316;BME280;61545;53.726;-0.444;2023-05-02T13:41:55;1024.5;;;12.0;100.0
73316;BME280;61545;53.726;-0.444;2023-05-02T13:46:55;1024.5;;;11.9;100.0
73316;BME280;61545;53.726;-0.444;2023-05-02T13:51:55;1024.5;;;12.0;100.0
73316;BME280;61545;53.726;-0.444;2023-05-02T13:56:55;1024.6;;;12.8;100.0
73316;BME280;61545;53.726;-0.444;2023-05-02T14:01:55;1024.6;;;12.3;100.0
73316;BME280;61545;53.726;-0.444;2023-05-02T14:06:55;1024.5;;;12.3;100.0
73316;BME280;61545;53.726;-0.444;2023-05-02T14:11:55;1024.6;;;12.3;100.0
73316;BME280;61545;53.726;-0.444;2023-05-02T14:16:55;1024.6;;;12.4;100.0
73316;BME280;61545;53.726;-0.444;2023-05-02T14:21:55;1024.6;;;12.5;100.0
73316;BME280;61545;53.726;-0.444;2023-05-02T14:26:55;1024.4;;;12.2;100.0
73316;BME280;61545;53.726;-0.444;2023-05-02T14:31:55;1024.5;;;12.0;100.0
73316;BME280;61545;53.726;-0.444;2023-05-02T14:36:55;1024.5;;;12.3;100.0
73316;BME280;61545;53.726;-0.444;2023-05-02T14:41:55;1024.5;;;12.2;100.0
73316;BME280;61545;53.726;-0.444;2023-05-02T14:46:55;1024.5;;;12.3;100.0
73316;BME280;61545;53.726;-0.444;2023-05-02T14:51:55;1024.5;;;12.0;100.0
73316;BME280;61545;53.726;-0.444;2023-05-02T14:56:55;1024.4;;;12.2;100.0
73316;BME280;61545;53.726;-0.444;2023-05-02T15:01:56;1024.5;;;12.2;100.0
73316;BME280;61545;53.726;-0.444;2023-05-02T15:06:56;1024.4;;;11.9;100.0
73316;BME280;61545;53.726;-0.444;2023-05-02T15:11:55;1024.4;;;11.9;100.0
73316;BME280;61545;53.726;-0.444;2023-05-02T15:16:55;1024.4;;;11.9;100.0
73316;BME280;61545;53.726;-0.444;2023-05-02T15:21:55;1024.5;;;11.8;100.0
73316;BME280;61545;53.726;-0.444;2023-05-02T15:26:56;1024.5;;;11.7;100.0
73316;BME280;61545;53.726;-0.444;2023-05-02T15:31:55;1024.4;;;12.2;100.0
73316;BME280;61545;53.726;-0.444;2023-05-02T15:36:58;1024.4;;;11.7;100.0
73316;BME280;61545;53.726;-0.444;2023-05-02T15:41:55;1024.4;;;11.7;100.0
73316;BME280;61545;53.726;-0.444;2023-05-02T15:46:55;1024.4;;;11.4;100.0
73316;BME280;61545;53.726;-0.444;2023-05-02T15:51:55;1024.3;;;11.5;100.0
73316;BME280;61545;53.726;-0.444;2023-05-02T15:56:55;1024.3;;;11.7;100.0
73316;BME280;61545;53.726;-0.444;2023-05-02T16:01:55;1024.2;;;11.9;100.0
73316;BME280;61545;53.726;-0.444;2023-05-02T16:06:55;1024.1;;;11.5;100.0
73316;BME280;61545;53.726;-0.444;2023-05-02T16:11:55;1024.1;;;11.5;100.0
73316;BME280;61545;53.726;-0.444;2023-05-02T16:16:55;1024.0;;;11.6;100.0
73316;BME280;61545;53.726;-0.444;2023-05-02T16:21:55;1023.9;;;11.6;100.0
73316;BME280;61545;53.726;-0.444;2023-05-02T16:26:55;1024.0;;;11.7;100.0
73316;BME280;61545;53.726;-0.444;2023-05-02T16:31:55;1024.0;;;11.6;100.0
73316;BME280;61545;53.726;-0.444;2023-05-02T16:36:55;1024.0;;;11.4;100.0
73316;BME280;61545;53.726;-0.444;2023-05-02T16:41:55;1024.1;;;11.4;100.0
73316;BME280;61545;53.726;-0.444;2023-05-02T16:46:56;1024.1;;;11.4;100.0
73316;BME280;61545;53.726;-0.444;2023-05-02T16:51:55;1024.3;;;11.4;100.0
73316;BME280;61545;53.726;-0.444;2023-05-02T16:56:55;1024.3;;;11.1;100.0
73316;BME280;61545;53.726;-0.444;2023-05-02T17:01:55;1024.3;;;11.1;100.0
73316;BME280;61545;53.726;-0.444;2023-05-02T17:06:55;1024.2;;;11.0;100.0
73316;BME280;61545;53.726;-0.444;2023-05-02T17:11:55;1024.2;;;10.8;100.0
73316;BME280;61545;53.726;-0.444;2023-05-02T17:16:55;1024.1;;;10.6;100.0
73316;BME280;61545;53.726;-0.444;2023-05-02T17:21:56;1024.1;;;10.7;100.0
73316;BME280;61545;53.726;-0.444;2023-05-02T17:26:56;1024.1;;;10.5;100.0
73316;BME280;61545;53.726;-0.444;2023-05-02T17:31:55;1024.2;;;10.4;100.0
73316;BME280;61545;53.726;-0.444;2023-05-02T17:36:55;1024.2;;;10.5;100.0
73316;BME280;61545;53.726;-0.444;2023-05-02T17:41:55;1024.2;;;10.4;100.0
73316;BME280;61545;53.726;-0.444;2023-05-02T17:46:56;1024.1;;;10.5;100.0
73316;BME280;61545;53.726;-0.444;2023-05-02T17:51:55;1024.2;;;10.4;100.0
73316;BME280;61545;53.726;-0.444;2023-05-02T17:56:55;1024.2;;;10.4;100.0
73316;BME280;61545;53.726;-0.444;2023-05-02T18:01:55;1024.2;;;10.2;100.0
73316;BME280;61545;53.726;-0.444;2023-05-02T18:06:56;1024.3;;;10.2;100.0
73316;BME280;61545;53.726;-0.444;2023-05-02T18:11:55;1024.4;;;10.1;100.0
73316;BME280;61545;53.726;-0.444;2023-05-02T18:16:55;1024.3;;;9.9;100.0
73316;BME280;61545;53.726;-0.444;2023-05-02T18:21:55;1024.1;;;9.8;100.0
73316;BME280;61545;53.726;-0.444;2023-05-02T18:26:56;1024.1;;;9.7;100.0
73316;BME280;61545;53.726;-0.444;2023-05-02T18:31:56;1024.0;;;9.7;100.0
73316;BME280;61545;53.726;-0.444;2023-05-02T18:36:57;1024.1;;;9.9;100.0
73316;BME280;61545;53.726;-0.444;2023-05-02T18:41:56;1024.2;;;9.8;100.0
73316;BME280;61545;53.726;-0.444;2023-05-02T18:46:56;1024.2;;;9.6;100.0
73316;BME280;61545;53.726;-0.444;2023-05-02T18:51:56;1024.2;;;9.5;100.0
73316;BME280;61545;53.726;-0.444;2023-05-02T18:56:55;1024.3;;;9.4;100.0
73316;BME280;61545;53.726;-0.444;2023-05-02T19:01:55;1024.3;;;9.4;100.0
73316;BME280;61545;53.726;-0.444;2023-05-02T19:06:56;1024.4;;;9.5;100.0
73316;BME280;61545;53.726;-0.444;2023-05-02T19:11:55;1024.4;;;9.4;100.0
73316;BME280;61545;53.726;-0.444;2023-05-02T19:16:56;1024.5;;;9.4;100.0
73316;BME280;61545;53.726;-0.444;2023-05-02T19:21:56;1024.4;;;9.4;100.0
73316;BME280;61545;53.726;-0.444;2023-05-02T19:26:56;1024.4;;;9.4;100.0
73316;BME280;61545;53.726;-0.444;2023-05-02T19:31:56;1024.4;;;9.3;100.0
73316;BME280;61545;53.726;-0.444;2023-05-02T19:36:56;1024.5;;;9.1;100.0
73316;BME280;61545;53.726;-0.444;2023-05-02T19:41:56;1024.5;;;9.1;100.0
73316;BME280;61545;53.726;-0.444;2023-05-02T19:46:56;1024.6;;;9.2;100.0
73316;BME280;61545;53.726;-0.444;2023-05-02T19:51:56;1024.7;;;9.2;100.0
73316;BME280;61545;53.726;-0.444;2023-05-02T19:56:56;1024.7;;;9.0;100.0
73316;BME280;61545;53.726;-0.444;2023-05-02T20:01:56;1024.8;;;9.2;100.0
73316;BME280;61545;53.726;-0.444;2023-05-02T20:06:56;1024.8;;;8.9;100.0
73316;BME280;61545;53.726;-0.444;2023-05-02T20:11:56;1024.8;;;8.9;100.0
73316;BME280;61545;53.726;-0.444;2023-05-02T20:16:56;1024.9;;;8.9;100.0
73316;BME280;61545;53.726;-0.444;2023-05-02T20:21:56;1024.9;;;8.9;100.0
73316;BME280;61545;53.726;-0.444;2023-05-02T20:26:56;1024.9;;;8.7;100.0
73316;BME280;61545;53.726;-0.444;2023-05-02T20:31:56;1024.9;;;8.6;100.0
73316;BME280;61545;53.726;-0.444;2023-05-02T20:36:56;1024.9;;;8.8;100.0
73316;BME280;61545;53.726;-0.444;2023-05-02T20:41:56;1024.9;;;8.6;100.0
73316;BME280;61545;53.726;-0.444;2023-05-02T20:46:56;1025.1;;;8.5;100.0
73316;BME280;61545;53.726;-0.444;2023-05-02T20:51:56;1025.2;;;8.7;100.0
73316;BME280;61545;53.726;-0.444;2023-05-02T20:56:56;1025.2;;;8.6;100.0
73316;BME280;61545;53.726;-0.444;2023-05-02T21:01:56;1025.2;;;8.5;100.0
73316;BME280;61545;53.726;-0.444;2023-05-02T21:06:56;1025.3;;;8.3;100.0
73316;BME280;61545;53.726;-0.444;2023-05-02T21:11:56;1025.1;;;8.5;100.0
73316;BME280;61545;53.726;-0.444;2023-05-02T21:16:56;1025.1;;;8.5;100.0
73316;BME280;61545;53.726;-0.444;2023-05-02T21:21:56;1025.2;;;8.2;100.0
73316;BME280;61545;53.726;-0.444;2023-05-02T21:26:56;1025.2;;;8.2;100.0
73316;BME280;61545;53.726;-0.444;2023-05-02T21:31:56;1025.2;;;8.1;100.0
73316;BME280;61545;53.726;-0.444;2023-05-02T21:36:56;1025.2;;;8.2;100.0
73316;BME280;61545;53.726;-0.444;2023-05-02T21:41:56;1025.3;;;8.3;100.0
73316;BME280;61545;53.726;-0.444;2023-05-02T21:46:56;1025.3;;;8.1;100.0
73316;BME280;61545;53.726;-0.444;2023-05-02T21:51:56;1025.3;;;8.1;100.0
73316;BME280;61545;53.726;-0.444;2023-05-02T21:56:56;1025.3;;;8.1;100.0
73316;BME280;61545;53.726;-0.444;2023-05-02T22:01:56;1025.4;;;8.2;100.0
73316;BME280;61545;53.726;-0.444;2023-05-02T22:06:56;1025.4;;;8.0;100.0
73316;BME280;61545;53.726;-0.444;2023-05-02T22:11:56;1025.4;;;7.9;100.0
73316;BME280;61545;53.726;-0.444;2023-05-02T22:16:56;1025.5;;;7.9;100.0
73316;BME280;61545;53.726;-0.444;2023-05-02T22:21:56;1025.4;;;8.0;100.0
73316;BME280;61545;53.726;-0.444;2023-05-02T22:26:56;1025.3;;;7.9;100.0
73316;BME280;61545;53.726;-0.444;2023-05-02T22:31:56;1025.3;;;8.0;100.0
73316;BME280;61545;53.726;-0.444;2023-05-02T22:36:56;1025.2;;;8.0;100.0
73316;BME280;61545;53.726;-0.444;2023-05-02T22:41:56;1025.1;;;8.0;100.0
73316;BME280;61545;53.726;-0.444;2023-05-02T22:46:56;1025.0;;;8.2;100.0
73316;BME280;61545;53.726;-0.444;2023-05-02T22:51:56;1025.1;;;8.0;100.0
73316;BME280;61545;53.726;-0.444;2023-05-02T22:56:56;1025.1;;;8.0;100.0
73316;BME280;61545;53.726;-0.444;2023-05-02T23:01:57;1025.1;;;8.0;100.0
73316;BME280;61545;53.726;-0.444;2023-05-02T23:06:56;1025.0;;;8.0;100.0
73316;BME280;61545;53.726;-0.444;2023-05-02T23:11:56;1025.0;;;8.2;100.0
73316;BME280;61545;53.726;-0.444;2023-05-02T23:16:56;1025.0;;;8.0;100.0
73316;BME280;61545;53.726;-0.444;2023-05-02T23:21:56;1025.1;;;7.9;100.0
73316;BME280;61545;53.726;-0.444;2023-05-02T23:26:56;1025.1;;;7.8;100.0
73316;BME280;61545;53.726;-0.444;2023-05-02T23:31:56;1025.2;;;8.0;100.0
73316;BME280;61545;53.726;-0.444;2023-05-02T23:36:56;1025.1;;;8.0;100.0
73316;BME280;61545;53.726;-0.444;2023-05-02T23:41:56;1025.2;;;7.7;100.0
73316;BME280;61545;53.726;-0.444;2023-05-02T23:46:56;1025.2;;;7.7;100.0
73316;BME280;61545;53.726;-0.444;2023-05-02T23:51:56;1025.3;;;7.8;100.0
73316;BME280;61545;53.726;-0.444;2023-05-02T23:56:56;1025.3;;;7.7;100.0
